Etusivu
METAR-TAF:

METAR-TAF

Lentoasemat :

Metropolis Municipal Airport

Metropolis, Illinois, Yhdysvallat

Leveyspiiri: 37-11-09N, Pituuspiiri: 088-45-02W, korkeus merenpinnasta: 117 m

Tämänhetkinen sää

Tämä raportti tehtiin 17 minuuttia sitten, kello 03.55 UTC
Tuuli 5 kn pohjoisesta/koillisesta
Lämpötila 8°C
Kosteus 87%
Ilmanpaine 1019 hPa
Näkyvyys: 16.1 km
Pilvistä 1200 ft:n korkeudessa

METAR: KM30 050355Z AUTO 02005KT 10SM OVC012 08/06 A3010 RMK AO2 T00810057

Aika: 23:12 (04:12 UTC)


TAF: puuttuu

Säähavainnot ja -ennusteet yli 4000 lentoasemalta (METAR- ja TAF-raportit).

Käytössä olevat sääasemat on merkitty karttaan keltaisilla ja punaisilla pisteillä.

Aseta hiiri pisteen päälle nähdäksesi sääaseman nimen.

Klikkaa sitten nähdäksesi säähavainnot ja -ennusteet.

Kartan vaihtaminen: klikkaa mustalla rastilla varustettuja vihreitä pisteitä, niin voit zoomata sisään; viivalla varustettua vihreää pistettä, niin voit zoomata ulos tai vihreitä nuolia, niin pääset viereisille kartoille.


METAR-TAF: